Blue Creek, Ohio
Current Conditions -  °F | °C
As of 3:35 PM on Monday 26 Jan 2015 (Local Time) from KFGX Reporting Station
Overcast Overcast  
Wind Chill: 18°   Ceiling: 1400
Heat Index: 26°   Visibility: 10mi
Dew Point: 21°   Wind: 8mph
Humidity: 81%   Direction: 290°WNW
Pressure: 29.88"   Gusts: NA
Location:  38.78°N, 83.33°W
Report Text: KFGX 262035Z AUTO 29007KT 10SM OVC014 M03/M06 A2988 RMK AO2 T10321060
Loading
Personal Weather Stations






























Interactive Weather Map New forecast layout! Learn more

10-Day Weather Forecast

Advertisements
Track Severe Weather on mobile